createdAt,value
2022-11-09T00:00:52.593Z,23.13
2022-11-09T00:03:59.050Z,20.85
2022-11-09T00:07:01.808Z,20.52
2022-11-09T00:10:04.407Z,24.73
2022-11-09T00:13:06.617Z,19.52
2022-11-09T00:16:10.978Z,21.08
2022-11-09T00:19:14.169Z,19.75
2022-11-09T00:22:16.341Z,20.88
2022-11-09T00:25:18.483Z,21.52
2022-11-09T00:28:20.743Z,23.95
2022-11-09T00:31:24.631Z,20.30
2022-11-09T00:34:45.463Z,19.33
2022-11-09T00:37:47.810Z,17.15
2022-11-09T00:40:49.983Z,20.58
2022-11-09T00:43:52.905Z,18.40
2022-11-09T00:46:55.164Z,20.08
2022-11-09T00:56:55.590Z,19.42
2022-11-09T00:59:57.783Z,22.73
2022-11-09T01:03:00.826Z,19.25
2022-11-09T01:06:03.350Z,17.70
2022-11-09T01:09:05.727Z,18.73
2022-11-09T01:12:07.920Z,22.52
2022-11-09T01:15:10.287Z,19.67
2022-11-09T01:18:12.567Z,19.52
2022-11-09T01:21:15.679Z,20.55
2022-11-09T01:24:17.779Z,17.17
2022-11-09T01:27:19.916Z,19.55
2022-11-09T01:30:22.090Z,19.50
2022-11-09T01:33:24.512Z,18.70
2022-11-09T01:36:26.723Z,19.10
2022-11-09T01:39:28.887Z,17.98
2022-11-09T01:42:35.546Z,16.20
2022-11-09T01:45:37.974Z,17.13
2022-11-09T01:48:48.743Z,18.85
2022-11-09T01:51:59.592Z,19.38
2022-11-09T01:55:11.826Z,17.70
2022-11-09T01:58:23.281Z,18.15
2022-11-09T02:01:26.094Z,17.48
2022-11-09T02:04:35.591Z,19.98
2022-11-09T02:07:38.938Z,20.17
2022-11-09T02:10:45.636Z,18.77
2022-11-09T02:14:00.027Z,19.42
2022-11-09T02:17:03.505Z,18.33
2022-11-09T02:20:14.424Z,18.55
2022-11-09T02:23:17.843Z,17.70
2022-11-09T02:26:36.005Z,21.95
2022-11-09T02:29:41.873Z,20.75
2022-11-09T02:32:44.313Z,17.90
2022-11-09T02:35:46.500Z,19.15
2022-11-09T02:38:49.951Z,20.33
2022-11-09T02:42:03.571Z,21.60
2022-11-09T02:45:10.291Z,21.80
2022-11-09T02:48:14.693Z,20.27
2022-11-09T02:51:16.903Z,20.90
2022-11-09T02:54:19.120Z,25.20
2022-11-09T02:57:21.330Z,25.98
2022-11-09T03:00:25.022Z,21.63
2022-11-09T03:03:27.753Z,20.95
2022-11-09T03:06:36.058Z,24.45
2022-11-09T03:09:44.313Z,21.63
2022-11-09T03:12:46.461Z,25.08
2022-11-09T03:15:50.020Z,21.95
2022-11-09T03:18:52.918Z,21.98
2022-11-09T03:21:55.381Z,24.33
2022-11-09T03:24:59.252Z,23.85
2022-11-09T03:28:04.345Z,22.10
2022-11-09T03:31:07.459Z,25.23
2022-11-09T03:34:09.829Z,25.80
2022-11-09T03:37:12.197Z,21.58
2022-11-09T03:40:14.522Z,25.45
2022-11-09T03:43:17.959Z,26.35
2022-11-09T03:46:20.565Z,21.73
2022-11-09T03:49:23.965Z,24.63
2022-11-09T03:52:26.135Z,20.25
2022-11-09T03:55:29.184Z,22.50
2022-11-09T03:58:31.381Z,22.83
2022-11-09T04:01:33.640Z,22.35
2022-11-09T04:04:35.827Z,23.38
2022-11-09T04:07:38.689Z,23.63
2022-11-09T04:10:40.856Z,26.27
2022-11-09T04:13:43.366Z,25.38
2022-11-09T04:16:45.511Z,19.40
2022-11-09T04:19:47.667Z,23.05
2022-11-09T04:23:01.011Z,23.02
2022-11-09T04:26:03.197Z,22.77
2022-11-09T04:29:05.422Z,24.50
2022-11-09T04:32:07.596Z,19.75
2022-11-09T04:35:09.855Z,21.00
2022-11-09T04:38:13.954Z,22.30
2022-11-09T04:41:16.387Z,23.38
2022-11-09T04:44:18.663Z,24.13
2022-11-09T04:47:20.830Z,22.45
2022-11-09T04:50:22.985Z,23.38
2022-11-09T04:53:27.083Z,21.55
2022-11-09T04:56:29.257Z,21.77
2022-11-09T04:59:31.426Z,19.98
2022-11-09T05:02:33.676Z,21.77
2022-11-09T05:05:37.912Z,20.10
2022-11-09T05:08:40.132Z,23.70
2022-11-09T05:11:42.324Z,21.20
2022-11-09T05:14:44.482Z,23.60
2022-11-09T05:17:46.757Z,22.50
2022-11-09T05:20:48.950Z,22.55
2022-11-09T05:24:00.603Z,19.65
2022-11-09T05:27:05.136Z,19.60
2022-11-09T05:30:08.157Z,22.80
2022-11-09T05:33:10.575Z,18.92
2022-11-09T05:36:12.725Z,21.50
2022-11-09T05:39:14.882Z,22.42
2022-11-09T05:42:17.149Z,21.02
2022-11-09T05:48:42.839Z,21.23
2022-11-09T05:51:45.055Z,21.50
2022-11-09T05:54:47.266Z,20.17
2022-11-09T05:57:49.477Z,22.08
2022-11-09T06:00:51.635Z,22.65
2022-11-09T06:03:54.615Z,20.05
2022-11-09T06:06:57.185Z,22.17
2022-11-09T06:09:59.604Z,20.17
2022-11-09T06:13:02.053Z,19.92
2022-11-09T06:16:05.903Z,23.52
2022-11-09T06:19:08.126Z,24.15
2022-11-09T06:22:10.401Z,19.92
2022-11-09T06:25:12.548Z,20.15
2022-11-09T06:28:14.720Z,22.83
2022-11-09T06:31:17.338Z,20.33
2022-11-09T06:34:19.555Z,21.90
2022-11-09T06:37:21.758Z,22.08
2022-11-09T06:40:24.056Z,19.90
2022-11-09T06:43:27.169Z,22.42
2022-11-09T06:46:29.282Z,22.92
2022-11-09T06:49:31.530Z,22.33
2022-11-09T06:52:33.705Z,22.15
2022-11-09T06:55:36.351Z,17.83
2022-11-09T06:58:38.752Z,18.25
2022-11-09T07:01:40.988Z,22.85
2022-11-09T07:04:43.202Z,23.42
2022-11-09T07:07:45.331Z,22.25
2022-11-09T07:10:47.659Z,20.25
2022-11-09T07:13:53.419Z,20.90
2022-11-09T07:16:58.487Z,22.00
2022-11-09T07:20:01.023Z,23.63
2022-11-09T07:23:03.221Z,22.20
2022-11-09T07:26:05.562Z,21.40
2022-11-09T07:29:07.973Z,21.80
2022-11-09T07:32:10.376Z,22.15
2022-11-09T07:35:12.584Z,22.88
2022-11-09T07:38:19.825Z,24.13
2022-11-09T07:41:22.413Z,21.33
2022-11-09T07:44:24.609Z,24.35
2022-11-09T07:47:26.766Z,24.45
2022-11-09T07:50:30.820Z,26.15
2022-11-09T07:53:33.360Z,20.02
2022-11-09T07:56:36.342Z,24.77
2022-11-09T07:59:38.599Z,25.95
2022-11-09T08:02:41.077Z,24.65
2022-11-09T08:05:43.205Z,23.63
2022-11-09T08:08:45.810Z,24.27
2022-11-09T08:11:48.013Z,23.90
2022-11-09T08:14:50.248Z,27.23
2022-11-09T08:17:52.749Z,25.65
2022-11-09T08:20:55.470Z,25.05
2022-11-09T08:24:00.843Z,25.67
2022-11-09T08:27:03.013Z,24.65
2022-11-09T08:30:05.458Z,22.77
2022-11-09T08:33:07.909Z,26.42
2022-11-09T08:36:15.246Z,24.35
2022-11-09T08:39:17.610Z,22.23
2022-11-09T08:42:19.836Z,25.92
2022-11-09T08:45:22.322Z,25.67
2022-11-09T08:48:24.724Z,22.63
2022-11-09T08:51:26.960Z,28.60
2022-11-09T08:54:29.134Z,25.60
2022-11-09T08:57:31.706Z,26.67
2022-11-09T09:00:34.061Z,24.23
2022-11-09T09:03:36.397Z,28.13
2022-11-09T09:06:38.668Z,25.48
2022-11-09T09:09:40.972Z,26.40
2022-11-09T09:12:43.600Z,25.05
2022-11-09T09:15:45.743Z,26.25
2022-11-09T09:18:48.943Z,31.20
2022-11-09T09:21:51.175Z,24.70
2022-11-09T09:24:53.868Z,27.33
2022-11-09T09:27:56.151Z,31.08
2022-11-09T09:30:59.887Z,27.67
2022-11-09T09:34:02.420Z,32.22
2022-11-09T09:37:04.603Z,30.05
2022-11-09T09:40:07.342Z,27.50
2022-11-09T09:43:28.799Z,30.15
2022-11-09T09:46:40.611Z,31.05
2022-11-09T09:50:18.979Z,30.65
2022-11-09T09:53:33.986Z,31.38
2022-11-09T09:56:40.485Z,29.38
2022-11-09T09:59:45.033Z,33.92
2022-11-09T10:02:47.335Z,29.15
2022-11-09T10:06:05.052Z,27.42
2022-11-09T10:09:19.818Z,28.38
2022-11-09T10:12:34.015Z,33.53
2022-11-09T10:15:50.932Z,36.90
2022-11-09T10:19:34.321Z,26.45
2022-11-09T10:22:48.530Z,36.50
2022-11-09T10:26:04.498Z,30.58
2022-11-09T10:29:25.645Z,33.78
2022-11-09T10:32:31.644Z,29.55
2022-11-09T10:35:50.444Z,34.75
2022-11-09T10:38:55.529Z,31.55
2022-11-09T10:42:16.704Z,34.38
2022-11-09T10:45:40.312Z,36.17
2022-11-09T10:49:22.033Z,35.30
2022-11-09T10:52:47.254Z,34.70
2022-11-09T10:56:22.053Z,34.50
2022-11-09T10:59:56.830Z,33.50
2022-11-09T11:03:18.728Z,38.13
2022-11-09T11:06:42.535Z,37.03
2022-11-09T11:10:15.269Z,36.08
2022-11-09T11:13:35.741Z,46.03
2022-11-09T11:16:56.635Z,62.38
2022-11-09T11:20:30.012Z,64.82
2022-11-09T11:24:17.898Z,57.10
2022-11-09T11:27:44.436Z,66.65
2022-11-09T11:31:07.951Z,58.33
2022-11-09T11:34:57.944Z,70.32
2022-11-09T11:38:16.051Z,61.75
2022-11-09T11:41:55.546Z,64.47
2022-11-09T11:45:43.264Z,64.85
2022-11-09T11:49:32.464Z,55.38
2022-11-09T11:53:14.282Z,64.18
2022-11-09T11:56:46.888Z,54.85
2022-11-09T12:00:20.448Z,56.42
2022-11-09T12:04:11.689Z,58.72
2022-11-09T12:07:57.564Z,57.83
2022-11-09T12:11:38.428Z,55.88
2022-11-09T12:15:20.619Z,64.35
2022-11-09T12:19:05.972Z,60.45
2022-11-09T12:22:34.372Z,53.85
2022-11-09T12:26:01.117Z,51.30
2022-11-09T12:29:27.349Z,51.72
2022-11-09T12:32:54.108Z,56.40
2022-11-09T12:36:20.893Z,56.08
2022-11-09T12:39:52.734Z,54.47
2022-11-09T12:43:46.688Z,51.88
2022-11-09T12:47:15.579Z,48.83
2022-11-09T12:50:37.844Z,51.35
2022-11-09T12:54:00.786Z,50.70
2022-11-09T12:57:29.831Z,46.80
2022-11-09T13:00:56.071Z,48.22
2022-11-09T13:04:19.731Z,44.28
2022-11-09T13:07:53.183Z,42.60
2022-11-09T13:11:28.109Z,42.20
2022-11-09T13:14:48.671Z,46.05
2022-11-09T13:18:45.269Z,46.63
2022-11-09T13:22:34.856Z,45.33
2022-11-09T13:25:55.685Z,46.30
2022-11-09T13:29:23.961Z,37.15
2022-11-09T13:33:07.197Z,48.60
2022-11-09T13:36:27.589Z,45.22
2022-11-09T13:39:48.383Z,38.10
2022-11-09T13:43:09.050Z,41.08
2022-11-09T13:46:34.891Z,42.65
2022-11-09T13:49:56.065Z,38.88
2022-11-09T13:54:02.572Z,40.58
2022-11-09T13:57:24.854Z,40.42
2022-11-09T14:00:47.588Z,43.00
2022-11-09T14:04:30.182Z,41.28
2022-11-09T14:07:50.974Z,38.30
2022-11-09T14:11:44.133Z,44.38
2022-11-09T14:15:24.871Z,36.00
2022-11-09T14:19:11.058Z,36.92
2022-11-09T14:22:35.506Z,35.30
2022-11-09T14:25:56.461Z,38.88
2022-11-09T14:29:25.661Z,34.97
2022-11-09T14:32:54.216Z,36.07
2022-11-09T14:36:15.124Z,42.00
2022-11-09T14:39:37.345Z,38.67
2022-11-09T14:43:22.723Z,35.47
2022-11-09T14:46:43.569Z,36.88
2022-11-09T14:50:04.579Z,32.75
2022-11-09T14:53:33.945Z,32.92
2022-11-09T14:56:55.529Z,35.55
2022-11-09T15:00:35.518Z,34.20
2022-11-09T15:04:17.119Z,31.35
2022-11-09T15:07:37.838Z,34.30
2022-11-09T15:10:58.433Z,33.17
2022-11-09T15:14:52.625Z,30.13
2022-11-09T15:18:33.468Z,34.17
2022-11-09T15:21:55.266Z,29.17
2022-11-09T15:25:18.899Z,29.73
2022-11-09T15:28:47.655Z,28.52
2022-11-09T15:32:11.090Z,29.30
2022-11-09T15:35:31.968Z,29.17
2022-11-09T15:39:00.853Z,28.15
2022-11-09T15:42:21.593Z,27.23
2022-11-09T15:45:42.581Z,29.45
2022-11-09T15:49:25.529Z,25.35
2022-11-09T15:52:46.358Z,27.02
2022-11-09T15:56:10.548Z,27.95
2022-11-09T15:59:31.287Z,24.35
2022-11-09T16:02:52.106Z,22.33
2022-11-09T16:06:19.099Z,21.73
2022-11-09T16:09:40.960Z,22.45
2022-11-09T16:13:02.179Z,24.35
2022-11-09T16:16:23.210Z,19.27
2022-11-09T16:19:44.341Z,24.17
2022-11-09T16:23:05.268Z,21.98
2022-11-09T16:26:26.740Z,18.98
2022-11-09T16:29:47.434Z,20.35
2022-11-09T16:33:08.413Z,21.52
2022-11-09T16:36:29.685Z,21.00
2022-11-09T16:39:51.117Z,19.17
2022-11-09T16:43:11.806Z,17.25
2022-11-09T16:46:33.741Z,19.15
2022-11-09T16:49:54.497Z,18.40
2022-11-09T16:53:15.470Z,19.75
2022-11-09T16:56:36.224Z,16.65
2022-11-09T16:59:56.601Z,17.42
2022-11-09T17:03:17.220Z,17.60
2022-11-09T17:06:37.767Z,17.60
2022-11-09T17:09:58.741Z,17.55
2022-11-09T17:13:19.690Z,17.25
2022-11-09T17:16:42.225Z,18.45
2022-11-09T17:20:05.248Z,17.08
2022-11-09T17:23:26.130Z,16.75
2022-11-09T17:26:46.964Z,17.17
2022-11-09T17:30:08.317Z,18.60
2022-11-09T17:33:29.275Z,15.90
2022-11-09T17:37:03.573Z,16.48
2022-11-09T17:40:25.851Z,15.50
2022-11-09T17:43:47.239Z,18.48
2022-11-09T17:47:07.903Z,19.27
2022-11-09T17:50:28.662Z,17.95
2022-11-09T17:53:49.221Z,17.15
2022-11-09T17:57:10.164Z,18.33
2022-11-09T18:00:30.514Z,16.83
2022-11-09T18:03:51.426Z,16.45
2022-11-09T18:07:12.067Z,14.63
2022-11-09T18:10:33.073Z,17.25
2022-11-09T18:13:54.081Z,17.75
2022-11-09T18:17:14.850Z,14.95
2022-11-09T18:20:39.182Z,16.40
2022-11-09T18:24:00.523Z,15.88
2022-11-09T18:27:23.761Z,16.30
2022-11-09T18:30:48.341Z,16.02
2022-11-09T18:34:10.854Z,14.20
2022-11-09T18:37:35.036Z,15.32
2022-11-09T18:41:08.151Z,16.27
2022-11-09T18:44:28.819Z,16.08
2022-11-09T18:47:50.330Z,16.40
2022-11-09T18:51:11.753Z,16.15
2022-11-09T18:54:32.834Z,15.15
2022-11-09T18:57:53.520Z,14.43
2022-11-09T19:01:15.052Z,14.82
2022-11-09T19:04:36.234Z,16.17
2022-11-09T19:07:57.221Z,14.95
2022-11-09T19:11:18.038Z,15.60
2022-11-09T19:14:41.972Z,16.90
2022-11-09T19:18:02.749Z,17.50
2022-11-09T19:21:41.631Z,13.65
2022-11-09T19:25:02.308Z,15.23
2022-11-09T19:28:23.402Z,18.10
2022-11-09T19:31:45.513Z,15.18
2022-11-09T19:35:06.696Z,17.50
2022-11-09T19:38:27.541Z,13.15
2022-11-09T19:41:48.638Z,16.25
2022-11-09T19:45:12.142Z,16.20
2022-11-09T19:48:35.176Z,17.48
2022-11-09T19:51:56.404Z,17.98
2022-11-09T19:55:17.465Z,15.25
2022-11-09T19:58:38.396Z,15.27
2022-11-09T20:01:59.363Z,16.48
2022-11-09T20:05:19.869Z,15.23
2022-11-09T20:08:41.006Z,13.63
2022-11-09T20:12:20.455Z,18.42
2022-11-09T20:15:41.212Z,21.47
2022-11-09T20:19:03.087Z,13.57
2022-11-09T20:22:24.021Z,17.58
2022-11-09T20:25:44.696Z,18.50
2022-11-09T20:29:05.186Z,17.42
2022-11-09T20:32:25.988Z,21.00
2022-11-09T20:35:55.340Z,18.27
2022-11-09T20:39:16.178Z,15.68
2022-11-09T20:42:36.628Z,14.27
2022-11-09T20:46:02.620Z,19.38
2022-11-09T20:49:23.858Z,19.05
2022-11-09T20:52:44.869Z,20.45
2022-11-09T20:56:06.280Z,19.67
2022-11-09T20:59:27.330Z,18.08
2022-11-09T21:02:48.319Z,19.08
2022-11-09T21:06:10.041Z,16.77
2022-11-09T21:09:30.436Z,17.42
2022-11-09T21:12:55.547Z,18.75
2022-11-09T21:16:19.399Z,21.17
2022-11-09T21:19:39.989Z,18.90
2022-11-09T21:23:12.693Z,20.63
2022-11-09T21:26:51.856Z,16.05
2022-11-09T21:30:12.823Z,19.27
2022-11-09T21:33:33.822Z,21.52
2022-11-09T21:36:54.994Z,16.65
2022-11-09T21:40:15.669Z,20.25
2022-11-09T21:43:36.548Z,21.38
2022-11-09T21:46:57.998Z,17.08
2022-11-09T21:50:18.471Z,17.02
2022-11-09T21:53:39.594Z,17.10
2022-11-09T21:57:00.225Z,18.08
2022-11-09T22:00:21.293Z,18.08
2022-11-09T22:03:42.562Z,17.65
2022-11-09T22:07:03.622Z,20.20
2022-11-09T22:10:24.623Z,18.75
2022-11-09T22:14:04.156Z,19.15
2022-11-09T22:17:24.860Z,17.15
2022-11-09T22:20:55.534Z,17.52
2022-11-09T22:24:15.999Z,18.10
2022-11-09T22:27:36.979Z,15.40
2022-11-09T22:31:01.593Z,17.92
2022-11-09T22:34:22.494Z,18.90
2022-11-09T22:37:43.520Z,17.98
2022-11-09T22:41:06.814Z,16.40
2022-11-09T22:44:27.630Z,19.10
2022-11-09T22:47:48.342Z,19.08
2022-11-09T22:51:11.167Z,20.38
2022-11-09T22:54:31.904Z,17.60
2022-11-09T22:57:55.584Z,19.10
2022-11-09T23:01:18.906Z,18.65
2022-11-09T23:04:39.515Z,15.43
2022-11-09T23:08:00.132Z,16.48
2022-11-09T23:11:23.008Z,18.02
2022-11-09T23:15:02.299Z,15.23
2022-11-09T23:18:41.714Z,15.55
2022-11-09T23:22:02.409Z,15.75
2022-11-09T23:25:41.948Z,20.00
2022-11-09T23:29:02.699Z,16.33
2022-11-09T23:32:23.657Z,17.80
2022-11-09T23:35:44.736Z,17.42
2022-11-09T23:39:06.110Z,16.63
2022-11-09T23:42:26.946Z,16.50
2022-11-09T23:45:47.954Z,15.60
2022-11-09T23:49:08.763Z,15.27
2022-11-09T23:52:29.398Z,15.30
2022-11-09T23:55:50.277Z,19.10
2022-11-09T23:59:11.239Z,19.92
